Time;durP1;ratioP1;P1;durP2;ratioP2;P2;SDS_P1;SDS_P2;PMS_P1;PMS_P2;Temp;Humidity;BMP_temperature;BMP_pressure;BME280_temperature;BME280_humidity;BME280_pressure;Samples;Min_cycle;Max_cycle;Signal;HPM_P1;HPM_P2
2022/03/22 00:01:09;;;;;;;190.18;96.30;;;;;;;1.65;100.00;102682.75;5027484;28;20049;-79
2022/03/22 00:03:35;;;;;;;117.13;79.00;;;;;;;1.89;100.00;102675.06;5026720;28;20459;-79
2022/03/22 00:06:04;;;;;;;135.82;84.35;;;;;;;2.08;100.00;102673.84;5025793;28;20050;-78
2022/03/22 00:08:31;;;;;;;129.50;81.10;;;;;;;2.00;100.00;102675.22;5036055;28;20485;-80
2022/03/22 00:10:58;;;;;;;113.68;80.57;;;;;;;1.75;100.00;102672.50;5028402;28;20092;-79
2022/03/22 00:13:25;;;;;;;105.70;78.95;;;;;;;2.05;100.00;102677.50;5022170;28;20050;-79
2022/03/22 00:15:55;;;;;;;91.40;70.70;;;;;;;2.24;100.00;102667.50;5029414;28;20128;-78
2022/03/22 00:18:23;;;;;;;94.82;71.03;;;;;;;1.87;100.00;102666.47;5017889;28;20517;-79
2022/03/22 00:20:50;;;;;;;90.97;70.38;;;;;;;1.69;100.00;102665.88;5026119;28;20065;-78
2022/03/22 00:23:18;;;;;;;83.47;65.88;;;;;;;1.79;100.00;102667.00;5026848;28;20081;-78
2022/03/22 00:25:45;;;;;;;83.35;68.68;;;;;;;1.77;100.00;102665.41;5019368;28;20050;-78
2022/03/22 00:28:12;;;;;;;97.25;79.07;;;;;;;1.76;100.00;102659.31;5028149;28;20049;-80
2022/03/22 00:30:40;;;;;;;95.38;72.60;;;;;;;1.80;100.00;102658.19;5024140;28;20048;-77
2022/03/22 00:33:08;;;;;;;70.38;62.85;;;;;;;1.78;100.00;102652.19;5026376;28;20045;-79
2022/03/22 00:35:37;;;;;;;72.53;65.45;;;;;;;1.73;100.00;102649.06;5025915;28;20108;-79
2022/03/22 00:38:06;;;;;;;71.35;64.05;;;;;;;1.73;100.00;102653.47;5020658;28;20061;-79
2022/03/22 00:40:34;;;;;;;69.20;61.47;;;;;;;1.67;100.00;102652.06;5027035;28;20049;-79
2022/03/22 00:43:01;;;;;;;69.70;62.63;;;;;;;1.46;100.00;102645.63;5021026;28;20046;-79
2022/03/22 00:45:31;;;;;;;85.85;70.88;;;;;;;1.71;100.00;102645.69;5026953;28;20057;-78
2022/03/22 00:47:58;;;;;;;188.45;90.18;;;;;;;1.36;100.00;102640.97;5025347;28;20136;-78
2022/03/22 00:50:29;;;;;;;127.13;74.78;;;;;;;1.33;100.00;102640.31;5023306;28;20129;-79
2022/03/22 00:52:57;;;;;;;72.13;62.47;;;;;;;1.31;100.00;102640.41;5022784;28;20049;-79
2022/03/22 00:55:24;;;;;;;99.60;70.20;;;;;;;1.63;100.00;102641.88;5028939;28;20049;-79
2022/03/22 00:57:53;;;;;;;75.20;61.67;;;;;;;1.55;100.00;102638.00;5024797;28;20050;-76
2022/03/22 01:00:24;;;;;;;80.43;72.07;;;;;;;1.30;100.00;102643.97;5019680;28;20049;-80
2022/03/22 01:02:52;;;;;;;75.20;67.40;;;;;;;1.59;100.00;102641.25;5019254;28;20088;-79
2022/03/22 01:05:20;;;;;;;76.03;67.80;;;;;;;1.46;100.00;102635.97;5024033;28;20119;-79
2022/03/22 01:07:48;;;;;;;78.00;70.40;;;;;;;1.35;100.00;102646.28;5021959;28;20453;-78
2022/03/22 01:10:17;;;;;;;78.78;68.88;;;;;;;1.46;100.00;102640.38;5025240;28;20038;-79
2022/03/22 01:12:45;;;;;;;76.22;67.05;;;;;;;1.44;100.00;102639.63;5032235;28;20068;-80
2022/03/22 01:15:15;;;;;;;75.07;67.40;;;;;;;1.34;100.00;102637.59;5028667;28;20521;-79
2022/03/22 01:17:42;;;;;;;71.95;64.47;;;;;;;1.05;100.00;102631.59;5026520;28;20129;-79
2022/03/22 01:20:10;;;;;;;77.82;69.72;;;;;;;1.21;100.00;102634.09;5022023;28;20049;-79
2022/03/22 01:22:38;;;;;;;81.22;64.28;;;;;;;1.14;100.00;102630.19;5024681;28;20046;-80
2022/03/22 01:25:08;;;;;;;78.63;66.43;;;;;;;1.15;100.00;102626.63;5028282;28;20096;-76
2022/03/22 01:27:34;;;;;;;82.72;65.97;;;;;;;1.12;100.00;102626.81;5028148;28;20049;-79
2022/03/22 01:30:01;;;;;;;72.50;62.78;;;;;;;1.06;100.00;102624.56;5026259;28;20110;-79
2022/03/22 01:32:30;;;;;;;69.07;61.97;;;;;;;1.00;100.00;102617.97;5029779;28;20054;-79
2022/03/22 01:34:57;;;;;;;71.60;64.55;;;;;;;1.08;100.00;102620.94;5023053;28;20049;-79
2022/03/22 01:37:24;;;;;;;70.72;63.65;;;;;;;0.72;100.00;102615.41;5021990;28;20489;-79
2022/03/22 01:39:51;;;;;;;69.03;61.90;;;;;;;0.61;100.00;102614.28;5027748;28;20112;-77
2022/03/22 01:42:17;;;;;;;71.72;63.65;;;;;;;0.67;100.00;102613.91;5023832;28;20123;-79
2022/03/22 01:44:44;;;;;;;72.97;65.25;;;;;;;0.35;100.00;102615.03;5017412;28;20452;-79
2022/03/22 01:47:12;;;;;;;74.35;66.38;;;;;;;0.40;100.00;102611.22;5028509;28;20514;-78
2022/03/22 01:49:41;;;;;;;80.70;66.50;;;;;;;0.56;100.00;102615.50;5023695;28;20053;-79
2022/03/22 01:52:09;;;;;;;88.80;68.15;;;;;;;0.40;100.00;102608.59;5024625;28;20054;-76
2022/03/22 01:54:36;;;;;;;72.35;63.92;;;;;;;0.18;100.00;102609.06;5027637;28;20509;-81
2022/03/22 01:57:03;;;;;;;76.45;66.85;;;;;;;0.61;100.00;102608.22;5026543;28;20057;-78
2022/03/22 01:59:30;;;;;;;77.88;64.78;;;;;;;0.36;100.00;102614.94;5021898;28;20049;-79
2022/03/22 02:07:31;;;;;;;69.32;61.75;;;;;;;0.15;100.00;102613.63;5028996;28;20405;-79
2022/03/22 02:09:58;;;;;;;71.43;64.43;;;;;;;0.22;100.00;102610.56;5027876;28;20053;-78
2022/03/22 02:12:26;;;;;;;70.97;63.55;;;;;;;0.14;100.00;102615.38;5025935;28;20052;-79
2022/03/22 02:14:53;;;;;;;71.68;63.75;;;;;;;0.30;100.00;102611.84;5026087;28;20045;-80
2022/03/22 02:17:20;;;;;;;80.07;71.78;;;;;;;0.51;100.00;102609.72;5022425;28;20046;-77
2022/03/22 02:19:48;;;;;;;83.13;68.68;;;;;;;0.43;100.00;102602.34;5022885;28;20465;-78
2022/03/22 02:22:18;;;;;;;88.25;74.80;;;;;;;0.56;100.00;102608.50;5014379;28;20057;-78
2022/03/22 02:24:46;;;;;;;79.65;70.88;;;;;;;0.65;100.00;102605.31;5017639;28;20072;-80
2022/03/22 02:27:13;;;;;;;74.78;65.13;;;;;;;0.57;100.00;102607.56;5025467;28;20050;-79
2022/03/22 02:29:40;;;;;;;80.90;69.88;;;;;;;0.11;100.00;102605.13;5026185;28;20041;-79
2022/03/22 02:32:08;;;;;;;79.15;70.65;;;;;;;0.35;100.00;102602.81;5024953;28;20050;-78
2022/03/22 02:34:36;;;;;;;74.90;64.18;;;;;;;0.36;100.00;102608.88;5022383;28;20451;-79
2022/03/22 02:37:04;;;;;;;122.40;75.32;;;;;;;0.35;100.00;102608.03;5018151;28;20148;-78
2022/03/22 02:39:31;;;;;;;82.45;64.53;;;;;;;0.21;100.00;102606.28;5016230;28;20054;-79
2022/03/22 02:41:59;;;;;;;78.63;69.10;;;;;;;0.14;100.00;102602.31;5025265;28;20560;-79
2022/03/22 02:44:26;;;;;;;67.20;60.15;;;;;;;0.13;100.00;102615.50;5025103;28;20469;-76
2022/03/22 02:46:53;;;;;;;65.22;59.13;;;;;;;0.13;100.00;102612.88;5014357;28;20061;-80
2022/03/22 02:49:20;;;;;;;62.13;55.83;;;;;;;0.05;100.00;102607.25;5026896;28;20061;-79
2022/03/22 02:51:46;;;;;;;65.55;58.50;;;;;;;0.14;100.00;102610.16;5023708;28;20061;-78
2022/03/22 02:54:13;;;;;;;69.85;63.40;;;;;;;0.04;100.00;102606.44;5030628;28;20045;-79
2022/03/22 02:56:40;;;;;;;67.53;61.80;;;;;;;0.06;100.00;102615.03;5019866;28;20128;-79
2022/03/22 02:59:08;;;;;;;62.30;56.42;;;;;;;-0.05;100.00;102613.03;5023486;28;20046;-79
2022/03/22 03:01:48;;;;;;;61.92;56.35;;;;;;;0.11;100.00;102602.50;5124128;22;20055;-78
2022/03/22 03:04:15;;;;;;;65.63;59.45;;;;;;;0.07;100.00;102611.47;4985087;28;20407;-81
2022/03/22 03:06:41;;;;;;;64.25;58.35;;;;;;;0.05;100.00;102607.25;4981452;28;20553;-79
2022/03/22 03:09:08;;;;;;;61.17;55.88;;;;;;;-0.15;100.00;102603.19;4985684;28;20058;-77
2022/03/22 03:11:35;;;;;;;68.05;61.40;;;;;;;-0.12;100.00;102606.50;4983071;28;20398;-79
2022/03/22 03:16:47;;;;;;;73.57;67.07;;;;;;;-0.75;100.00;102594.44;4978027;28;20077;-77
2022/03/22 03:19:14;;;;;;;74.15;67.38;;;;;;;-0.58;100.00;102603.91;4991468;28;20054;-78
2022/03/22 03:21:41;;;;;;;70.95;64.10;;;;;;;-0.60;100.00;102605.78;4992442;28;20047;-79
2022/03/22 03:24:08;;;;;;;73.68;66.22;;;;;;;-0.83;100.00;102606.22;4991762;28;20046;-79
2022/03/22 03:26:35;;;;;;;78.65;70.80;;;;;;;-1.24;100.00;102614.53;4991379;28;20116;-79
2022/03/22 03:29:02;;;;;;;79.63;71.68;;;;;;;-1.39;100.00;102609.25;4987111;28;20062;-80
2022/03/22 03:31:29;;;;;;;73.53;66.10;;;;;;;-1.06;100.00;102612.72;4988091;28;20070;-78
2022/03/22 03:33:57;;;;;;;72.25;65.07;;;;;;;-1.34;100.00;102613.38;4986064;28;20054;-79
2022/03/22 03:36:23;;;;;;;65.70;59.47;;;;;;;-1.06;100.00;102610.97;4985883;28;20106;-79
2022/03/22 03:38:50;;;;;;;70.70;63.00;;;;;;;-1.12;100.00;102610.44;4986814;28;20043;-79
2022/03/22 03:47:03;;;;;;;69.15;56.75;;;;;;;-1.17;100.00;102615.91;4990212;28;20156;-79
2022/03/22 03:49:35;;;;;;;67.70;60.65;;;;;;;-1.70;100.00;102611.78;4983259;28;20061;-78
2022/03/22 03:52:03;;;;;;;67.25;60.15;;;;;;;-1.69;100.00;102613.47;4990777;28;20058;-79
2022/03/22 03:54:29;;;;;;;66.45;59.22;;;;;;;-1.40;100.00;102622.34;4982487;28;20197;-79
2022/03/22 03:56:56;;;;;;;87.32;67.63;;;;;;;-1.27;100.00;102612.09;4984563;28;20113;-79
2022/03/22 03:59:23;;;;;;;89.72;70.07;;;;;;;-1.16;100.00;102618.44;4985995;28;20046;-79
2022/03/22 04:01:50;;;;;;;95.05;76.55;;;;;;;-1.13;100.00;102613.97;4986440;28;20129;-79
2022/03/22 04:04:17;;;;;;;83.88;74.78;;;;;;;-1.49;100.00;102620.22;4988170;28;20129;-79
2022/03/22 04:06:45;;;;;;;87.45;75.10;;;;;;;-1.95;100.00;102613.03;4985021;28;20054;-79
2022/03/22 04:09:12;;;;;;;88.63;76.30;;;;;;;-1.99;100.00;102616.72;4994749;28;20217;-79
2022/03/22 04:11:39;;;;;;;92.80;74.60;;;;;;;-2.16;100.00;102621.94;4986478;28;20109;-83
2022/03/22 04:14:06;;;;;;;98.38;75.50;;;;;;;-1.89;100.00;102617.94;4985812;28;20129;-78
2022/03/22 04:16:32;;;;;;;92.45;72.18;;;;;;;-1.79;100.00;102633.09;4985940;28;20054;-78
2022/03/22 04:18:59;;;;;;;94.55;71.70;;;;;;;-2.01;100.00;102626.38;4989707;28;20047;-79
2022/03/22 04:21:26;;;;;;;88.38;70.22;;;;;;;-1.80;100.00;102618.38;4988184;28;20051;-78
2022/03/22 04:23:54;;;;;;;90.35;67.38;;;;;;;-1.92;100.00;102617.25;4988477;28;20051;-79
2022/03/22 04:26:21;;;;;;;88.63;66.47;;;;;;;-1.69;100.00;102616.09;4988428;28;20054;-79
2022/03/22 04:34:16;;;;;;;106.82;77.97;;;;;;;-1.96;100.00;102627.00;4990197;28;20057;-78
2022/03/22 04:36:44;;;;;;;102.47;74.53;;;;;;;-2.20;100.00;102617.81;4986754;28;20061;-78
2022/03/22 04:39:12;;;;;;;113.22;76.72;;;;;;;-1.68;100.00;102617.75;4988814;28;20361;-79
2022/03/22 04:41:38;;;;;;;96.82;70.07;;;;;;;-1.79;100.00;102628.72;4985761;28;20623;-79
2022/03/22 04:44:06;;;;;;;98.40;73.70;;;;;;;-1.99;100.00;102621.09;4985891;28;20050;-78
2022/03/22 04:46:32;;;;;;;102.18;73.22;;;;;;;-1.73;100.00;102631.00;4983186;28;20475;-78
2022/03/22 04:48:59;;;;;;;91.82;69.93;;;;;;;-1.71;100.00;102623.13;4983714;28;20050;-79
2022/03/22 04:56:55;;;;;;;91.43;65.80;;;;;;;-1.35;100.00;102629.94;4984723;28;20174;-80
2022/03/22 04:59:22;;;;;;;133.45;88.07;;;;;;;-1.11;100.00;102633.84;4984299;28;20054;-79
2022/03/22 05:01:49;;;;;;;173.40;99.90;;;;;;;-0.94;100.00;102631.16;4986783;28;20140;-79
2022/03/22 05:04:16;;;;;;;188.27;107.18;;;;;;;-0.98;100.00;102632.22;4984349;28;20057;-79
2022/03/22 05:06:43;;;;;;;119.68;79.07;;;;;;;-0.85;100.00;102631.56;4982851;28;20051;-79
2022/03/22 05:09:11;;;;;;;138.35;90.57;;;;;;;-0.84;100.00;102620.22;4980028;28;20057;-79
2022/03/22 05:11:38;;;;;;;114.97;77.22;;;;;;;-0.65;100.00;102617.41;4989221;28;20137;-77
2022/03/22 05:14:08;;;;;;;180.43;110.35;;;;;;;-0.52;100.00;102614.00;4984683;28;20058;-78
2022/03/22 05:16:35;;;;;;;145.80;93.93;;;;;;;-0.67;100.00;102601.81;4992937;28;20542;-80
2022/03/22 05:19:04;;;;;;;158.23;98.40;;;;;;;-0.33;100.00;102608.59;4983495;28;20055;-79
2022/03/22 05:21:30;;;;;;;149.88;97.20;;;;;;;-0.03;100.00;102611.19;4983434;28;20047;-79
2022/03/22 05:23:57;;;;;;;136.20;85.57;;;;;;;0.03;100.00;102620.44;4980086;28;20572;-78
2022/03/22 05:26:25;;;;;;;126.78;85.35;;;;;;;0.11;100.00;102610.34;4987377;28;20108;-79
2022/03/22 05:28:52;;;;;;;120.55;81.25;;;;;;;0.33;100.00;102612.50;4986991;28;20051;-79
2022/03/22 05:31:21;;;;;;;93.78;72.38;;;;;;;0.60;100.00;102611.75;4986612;28;20042;-80
2022/03/22 05:33:48;;;;;;;111.60;82.18;;;;;;;0.74;100.00;102605.69;4986766;28;20054;-79
2022/03/22 05:36:15;;;;;;;108.35;79.13;;;;;;;0.43;100.00;102613.66;4990196;28;20046;-79
2022/03/22 05:38:42;;;;;;;113.22;79.75;;;;;;;1.01;100.00;102606.56;4983336;28;20050;-80
2022/03/22 05:41:09;;;;;;;89.18;71.88;;;;;;;0.94;100.00;102602.66;4985830;28;20112;-79
2022/03/22 05:43:36;;;;;;;102.18;74.82;;;;;;;1.56;100.00;102607.41;4983180;28;20062;-78
2022/03/22 05:46:04;;;;;;;83.45;71.10;;;;;;;1.80;100.00;102608.38;4983517;28;20055;-79
2022/03/22 05:48:32;;;;;;;84.55;72.18;;;;;;;1.91;100.00;102601.59;4981027;28;20043;-80
2022/03/22 05:50:59;;;;;;;74.05;66.00;;;;;;;1.97;100.00;102617.75;4987658;28;20108;-80
2022/03/22 05:53:26;;;;;;;86.05;68.53;;;;;;;2.00;100.00;102611.47;4993800;28;20132;-80
2022/03/22 05:55:52;;;;;;;100.60;90.63;;;;;;;2.37;100.00;102615.03;4984281;28;20046;-79
2022/03/22 05:58:19;;;;;;;112.65;100.80;;;;;;;2.52;100.00;102616.59;4982933;28;20051;-79
2022/03/22 06:00:46;;;;;;;113.63;101.30;;;;;;;2.46;100.00;102611.78;4988517;28;20042;-80
2022/03/22 06:03:13;;;;;;;109.82;97.95;;;;;;;2.65;100.00;102621.81;4982069;28;20125;-78
2022/03/22 06:05:42;;;;;;;113.53;101.10;;;;;;;2.64;100.00;102620.16;4985367;28;20054;-79
2022/03/22 06:08:09;;;;;;;114.90;102.38;;;;;;;3.24;100.00;102610.63;4995167;28;20112;-78
2022/03/22 06:10:36;;;;;;;108.35;97.20;;;;;;;3.48;100.00;102610.63;4983844;28;20047;-82
2022/03/22 06:13:05;;;;;;;109.25;98.38;;;;;;;3.44;100.00;102609.16;4985383;28;20066;-79
2022/03/22 06:15:34;;;;;;;106.47;95.75;;;;;;;3.70;100.00;102606.41;4984287;28;20412;-79
2022/03/22 06:18:02;;;;;;;104.00;93.65;;;;;;;3.83;100.00;102602.72;4988530;28;20054;-80
2022/03/22 06:20:32;;;;;;;97.70;88.15;;;;;;;4.29;100.00;102603.63;4983279;28;20188;-79
2022/03/22 06:23:01;;;;;;;101.10;91.38;;;;;;;4.73;100.00;102605.44;4984154;28;20559;-80
2022/03/22 06:25:28;;;;;;;102.57;92.63;;;;;;;5.33;100.00;102608.53;4989850;28;20476;-77
2022/03/22 06:27:56;;;;;;;107.32;88.10;;;;;;;5.80;100.00;102605.56;4986661;28;20051;-77
2022/03/22 06:30:23;;;;;;;112.72;95.70;;;;;;;6.07;97.28;102605.88;4987654;28;20050;-78
2022/03/22 06:32:52;;;;;;;93.93;84.88;;;;;;;6.21;89.66;102607.38;4986122;28;20051;-78
2022/03/22 06:35:21;;;;;;;93.88;84.82;;;;;;;6.43;85.24;102611.63;4990479;28;20047;-79
2022/03/22 06:37:49;;;;;;;86.32;78.15;;;;;;;6.58;81.59;102607.66;4983760;28;20062;-80
2022/03/22 06:40:19;;;;;;;87.20;79.32;;;;;;;6.78;80.25;102600.66;4990047;28;20054;-80
2022/03/22 06:42:46;;;;;;;88.07;79.57;;;;;;;7.23;81.93;102592.25;4986962;28;20047;-78
2022/03/22 06:45:14;;;;;;;83.82;76.68;;;;;;;7.02;79.32;102595.00;4988956;28;20055;-79
2022/03/22 06:47:41;;;;;;;84.43;76.63;;;;;;;7.01;75.76;102601.22;4994504;28;20046;-77
2022/03/22 06:50:10;;;;;;;86.45;79.00;;;;;;;7.07;75.39;102587.47;4993746;28;20058;-78
2022/03/22 06:52:37;;;;;;;82.03;74.72;;;;;;;7.22;75.02;102595.00;4999512;28;20093;-79
2022/03/22 06:55:06;;;;;;;84.90;77.10;;;;;;;7.28;73.85;102602.38;4993461;28;20062;-78
2022/03/22 06:57:34;;;;;;;83.72;75.95;;;;;;;7.38;73.99;102597.94;4994394;28;20051;-79
2022/03/22 07:00:02;;;;;;;86.18;78.10;;;;;;;7.32;72.22;102572.91;4988781;28;20042;-77
2022/03/22 07:02:28;;;;;;;89.57;82.13;;;;;;;7.52;74.16;102586.94;4991547;28;20062;-79
2022/03/22 07:04:55;;;;;;;89.00;81.30;;;;;;;7.68;74.65;102586.34;4992705;28;20046;-79
2022/03/22 07:07:22;;;;;;;91.40;83.57;;;;;;;8.14;71.64;102578.59;4991916;28;20050;-78
2022/03/22 07:09:49;;;;;;;85.38;78.07;;;;;;;7.98;73.22;102580.03;4986909;28;20491;-78
2022/03/22 07:12:16;;;;;;;85.65;77.88;;;;;;;8.05;69.32;102582.97;4987118;28;20122;-80
2022/03/22 07:14:44;;;;;;;89.57;81.22;;;;;;;8.49;70.19;102570.00;4991810;28;20058;-78
2022/03/22 07:17:12;;;;;;;98.50;89.20;;;;;;;8.47;68.81;102579.88;4994708;28;20475;-78
2022/03/22 07:19:39;;;;;;;90.30;81.97;;;;;;;8.38;72.56;102567.50;4990240;28;20117;-80
2022/03/22 07:22:07;;;;;;;94.35;86.20;;;;;;;8.64;69.62;102573.00;4967373;28;20047;-80
2022/03/22 07:24:34;;;;;;;97.28;88.47;;;;;;;8.59;67.94;102569.94;4993653;28;20462;-79
2022/03/22 07:27:00;;;;;;;99.32;90.78;;;;;;;8.32;68.71;102566.28;4990374;28;20109;-78
2022/03/22 07:29:27;;;;;;;88.25;80.47;;;;;;;8.31;71.37;102563.78;4986906;28;20059;-79
2022/03/22 07:31:56;;;;;;;85.57;77.95;;;;;;;8.92;68.96;102568.50;4988620;28;20392;-81
2022/03/22 07:34:24;;;;;;;85.63;77.88;;;;;;;9.04;67.89;102564.63;4990064;28;20395;-79
2022/03/22 07:36:52;;;;;;;85.75;77.93;;;;;;;8.98;68.44;102562.59;4987998;28;20082;-81
2022/03/22 07:39:21;;;;;;;85.07;77.65;;;;;;;9.07;66.36;102559.03;4995035;28;20054;-78
2022/03/22 07:41:48;;;;;;;86.88;79.25;;;;;;;9.35;68.16;102554.50;4986158;28;20512;-78
2022/03/22 07:44:15;;;;;;;86.65;78.35;;;;;;;10.62;68.97;102551.28;4988553;28;20050;-80
2022/03/22 07:46:43;;;;;;;85.68;77.50;;;;;;;9.79;67.28;102540.38;4990264;28;20447;-78
2022/03/22 07:54:40;;;;;;;86.88;78.55;;;;;;;11.27;63.98;102528.44;4993305;28;20062;-79
2022/03/22 07:57:07;;;;;;;87.53;79.60;;;;;;;10.55;66.65;102523.66;4984028;28;20101;-78
2022/03/22 07:59:34;;;;;;;87.60;80.20;;;;;;;11.67;64.04;102517.75;4990515;28;20057;-78
2022/03/22 08:02:01;;;;;;;94.38;85.30;;;;;;;11.60;63.62;102516.75;4990911;28;20427;-78
2022/03/22 08:04:29;;;;;;;82.65;74.90;;;;;;;11.84;67.92;102525.72;4989276;28;20479;-80
2022/03/22 08:06:56;;;;;;;83.43;75.85;;;;;;;11.91;65.08;102506.22;4993369;28;20054;-78
2022/03/22 08:09:22;;;;;;;81.97;74.38;;;;;;;11.78;65.69;102505.09;4981889;28;20055;-81
2022/03/22 08:11:50;;;;;;;90.10;82.15;;;;;;;10.79;66.78;102504.28;4987780;28;20050;-80
2022/03/22 08:14:16;;;;;;;82.18;75.18;;;;;;;10.32;69.85;102512.81;4990269;28;20177;-78
2022/03/22 08:16:43;;;;;;;83.65;76.35;;;;;;;11.10;72.42;102501.81;4990688;28;20055;-79
2022/03/22 08:19:17;;;;;;;82.55;75.22;;;;;;;11.59;68.88;102515.13;4989951;28;20468;-78
2022/03/22 08:21:46;;;;;;;83.15;76.28;;;;;;;9.29;68.16;102509.16;4989407;28;20111;-81
2022/03/22 08:24:12;;;;;;;80.07;73.47;;;;;;;10.34;68.90;102508.16;4996372;28;20058;-78
2022/03/22 08:26:39;;;;;;;80.88;74.15;;;;;;;10.58;73.30;102501.25;4986730;28;20055;-80
2022/03/22 08:29:07;;;;;;;82.47;75.20;;;;;;;10.04;68.30;102497.03;4987417;28;20050;-79
2022/03/22 08:31:35;;;;;;;77.45;70.60;;;;;;;11.32;65.89;102505.66;4989148;28;20082;-78
2022/03/22 08:34:02;;;;;;;80.25;73.20;;;;;;;9.55;66.99;102501.25;4991208;28;20050;-79
2022/03/22 08:36:28;;;;;;;80.00;73.45;;;;;;;10.36;74.39;102506.19;4986214;28;20050;-80
2022/03/22 08:38:57;;;;;;;81.22;74.55;;;;;;;9.99;71.18;102494.06;4992154;28;20062;-81
2022/03/22 08:41:24;;;;;;;80.20;73.25;;;;;;;10.33;71.11;102487.91;4988386;28;20054;-77
2022/03/22 08:43:52;;;;;;;79.85;72.88;;;;;;;11.79;67.58;102483.59;4986273;28;20062;-79
2022/03/22 08:46:20;;;;;;;81.65;74.45;;;;;;;9.02;65.73;102489.75;4987548;28;20435;-79
2022/03/22 08:48:48;;;;;;;80.47;73.43;;;;;;;8.92;69.61;102481.88;4991171;28;20077;-78
2022/03/22 08:51:16;;;;;;;79.22;72.45;;;;;;;8.27;69.57;102482.00;4987565;28;20058;-79
2022/03/22 08:53:43;;;;;;;88.65;81.35;;;;;;;11.49;67.92;102468.38;4978682;28;20174;-79
2022/03/22 08:56:11;;;;;;;94.32;85.75;;;;;;;11.41;63.99;102466.59;4989291;28;20046;-78
2022/03/22 08:58:38;;;;;;;94.20;86.85;;;;;;;11.59;67.94;102472.53;4990059;28;20043;-78
2022/03/22 09:01:05;;;;;;;90.93;84.05;;;;;;;12.10;66.32;102462.41;4989516;28;20046;-81
2022/03/22 09:03:32;;;;;;;93.55;86.07;;;;;;;12.47;63.50;102460.88;4984244;28;20125;-79
2022/03/22 09:06:12;;;;;;;94.88;87.32;;;;;;;13.61;60.35;102448.41;4982834;28;20216;-78
2022/03/22 09:08:41;;;;;;;90.95;83.05;;;;;;;11.36;64.20;102452.94;4986241;28;20567;-79
2022/03/22 09:11:09;;;;;;;92.55;84.88;;;;;;;12.86;65.12;102437.75;4987054;28;20050;-78
2022/03/22 09:13:39;;;;;;;90.95;83.65;;;;;;;13.45;58.96;102436.06;4991515;28;20050;-79
2022/03/22 09:16:09;;;;;;;86.95;80.18;;;;;;;11.36;62.11;102435.16;4992772;28;20054;-78
2022/03/22 09:18:37;;;;;;;85.13;77.85;;;;;;;10.41;60.25;102431.31;4982327;28;20054;-78
2022/03/22 09:21:03;;;;;;;82.32;75.72;;;;;;;12.27;59.79;102428.50;4991286;28;20169;-78
2022/03/22 09:23:30;;;;;;;88.55;81.10;;;;;;;13.97;60.20;102434.31;4992332;28;20050;-79
2022/03/22 09:25:59;;;;;;;85.63;78.65;;;;;;;12.13;59.90;102432.75;4986152;28;20047;-78
2022/03/22 09:28:26;;;;;;;96.28;88.82;;;;;;;12.65;56.51;102411.75;4986482;28;20065;-79
2022/03/22 09:30:55;;;;;;;94.03;86.40;;;;;;;13.00;55.68;102423.66;4983965;28;20125;-80
2022/03/22 09:33:22;;;;;;;95.45;87.40;;;;;;;11.65;56.13;102410.63;4992634;28;20120;-79
2022/03/22 09:35:48;;;;;;;98.03;90.60;;;;;;;12.01;58.49;102420.00;4982964;28;20054;-78
2022/03/22 09:38:15;;;;;;;84.97;78.72;;;;;;;9.77;64.43;102414.97;4989160;28;20058;-78
2022/03/22 09:40:42;;;;;;;84.10;77.40;;;;;;;9.39;63.31;102417.94;4984001;28;20047;-79
2022/03/22 09:43:09;;;;;;;87.32;80.45;;;;;;;10.28;62.61;102413.19;4984942;28;20051;-79
2022/03/22 09:45:37;;;;;;;93.47;85.93;;;;;;;11.08;61.10;102410.75;4986906;28;20047;-81
2022/03/22 09:48:12;;;;;;;93.82;86.53;;;;;;;11.30;55.91;102395.09;4989038;28;20058;-77
2022/03/22 09:53:23;;;;;;;99.13;90.97;;;;;;;12.09;58.73;102396.81;4995166;28;20430;-79
2022/03/22 09:55:50;;;;;;;97.63;90.03;;;;;;;13.26;56.59;102392.09;4989692;28;20112;-80
2022/03/22 09:58:17;;;;;;;92.97;85.22;;;;;;;12.76;52.89;102385.50;4987531;28;20077;-80
2022/03/22 10:00:44;;;;;;;89.93;82.38;;;;;;;11.37;55.38;102393.41;4988309;28;20062;-79
2022/03/22 10:03:20;;;;;;;91.85;84.72;;;;;;;10.28;57.47;102378.66;4987975;28;20422;-81
2022/03/22 10:05:58;;;;;;;90.07;83.22;;;;;;;12.83;54.60;102382.97;4984935;28;20468;-77
2022/03/22 10:08:25;;;;;;;90.60;82.43;;;;;;;13.14;53.21;102366.00;4997513;28;20046;-79
2022/03/22 10:10:58;;;;;;;94.18;86.38;;;;;;;12.86;51.84;102374.63;4991355;28;20120;-79
2022/03/22 10:13:25;;;;;;;90.88;83.88;;;;;;;12.70;53.77;102358.75;4985103;28;20047;-79
2022/03/22 10:16:00;;;;;;;89.35;82.18;;;;;;;11.27;58.14;102359.03;4991243;28;20132;-78
2022/03/22 10:18:28;;;;;;;87.60;80.38;;;;;;;12.34;53.45;102354.88;4983000;28;20058;-80
2022/03/22 10:21:00;;;;;;;84.18;77.57;;;;;;;11.49;55.05;102351.31;4992367;28;20043;-78
2022/03/22 10:23:27;;;;;;;87.25;80.28;;;;;;;12.80;52.40;102344.16;4988198;28;20050;-78
2022/03/22 10:26:04;;;;;;;84.30;77.95;;;;;;;13.47;51.53;102345.16;4993498;28;20116;-78
2022/03/22 10:28:31;;;;;;;90.13;82.78;;;;;;;13.40;50.26;102338.88;4991100;28;20055;-79
2022/03/22 10:30:58;;;;;;;89.85;81.88;;;;;;;11.97;52.88;102334.31;4993467;28;20046;-78
2022/03/22 10:33:25;;;;;;;88.18;80.65;;;;;;;13.16;50.53;102334.63;4984651;28;20058;-78
2022/03/22 10:35:53;;;;;;;94.50;86.07;;;;;;;14.06;47.50;102333.50;4981834;28;20396;-78
2022/03/22 10:38:23;;;;;;;86.65;79.38;;;;;;;15.35;46.86;102334.13;4991671;28;20050;-81
2022/03/22 10:40:50;;;;;;;89.88;82.07;;;;;;;13.48;49.24;102344.13;4985072;28;20057;-80
2022/03/22 10:43:20;;;;;;;92.45;84.35;;;;;;;13.08;49.18;102338.22;4997739;28;20046;-81
2022/03/22 10:45:49;;;;;;;95.15;87.57;;;;;;;13.91;47.08;102325.53;4988061;28;20109;-78
2022/03/22 10:48:22;;;;;;;91.05;83.35;;;;;;;14.86;47.13;102316.34;4983482;28;20495;-79
2022/03/22 10:50:58;;;;;;;93.72;86.03;;;;;;;12.10;49.05;102318.59;4988612;28;20096;-80
2022/03/22 10:53:27;;;;;;;93.72;85.68;;;;;;;11.55;51.53;102306.19;4985867;28;20475;-78
2022/03/22 10:55:55;;;;;;;89.70;81.90;;;;;;;16.30;45.52;102302.06;4990543;28;20121;-81
2022/03/22 10:58:25;;;;;;;92.35;85.00;;;;;;;14.68;43.88;102298.13;4986982;28;20055;-79
2022/03/22 11:00:53;;;;;;;96.57;89.07;;;;;;;13.52;45.14;102303.56;4987884;28;20065;-80
2022/03/22 11:03:21;;;;;;;102.32;93.45;;;;;;;13.27;45.83;102320.88;4990175;28;20074;-79
2022/03/22 11:05:51;;;;;;;92.55;85.05;;;;;;;12.56;48.19;102312.41;4989353;28;20054;-78
2022/03/22 11:08:19;;;;;;;96.05;88.25;;;;;;;14.15;44.96;102294.97;4984075;28;20121;-78
2022/03/22 11:10:48;;;;;;;97.53;89.72;;;;;;;13.61;46.04;102301.56;4985976;28;20110;-78
2022/03/22 11:13:15;;;;;;;92.90;84.20;;;;;;;13.88;43.61;102305.38;4985513;28;20047;-79
2022/03/22 11:15:45;;;;;;;90.57;82.47;;;;;;;12.11;47.91;102301.59;4988419;28;20062;-82
2022/03/22 11:18:12;;;;;;;96.65;88.35;;;;;;;15.82;41.00;102307.56;4988614;28;20499;-79
2022/03/22 11:20:49;;;;;;;99.60;90.82;;;;;;;13.37;44.69;102299.22;4986583;28;20479;-78
2022/03/22 11:23:19;;;;;;;93.63;84.65;;;;;;;14.83;42.29;102292.69;4984576;28;20548;-77
2022/03/22 11:25:47;;;;;;;86.60;78.47;;;;;;;15.72;40.98;102299.91;4988635;28;20046;-79
2022/03/22 11:28:19;;;;;;;96.38;87.90;;;;;;;11.38;49.27;102297.47;4991629;28;20522;-78
2022/03/22 11:30:48;;;;;;;96.85;88.72;;;;;;;12.34;48.07;102298.06;4992293;28;20125;-78
2022/03/22 11:36:17;;;;;;;98.13;87.72;;;;;;;12.74;48.03;102288.91;4947292;28;20072;-77
2022/03/22 11:38:46;;;;;;;96.55;88.00;;;;;;;13.24;46.18;102284.66;4992142;28;20050;-80
2022/03/22 11:44:17;;;;;;;97.00;88.23;;;;;;;14.49;44.52;102255.97;4984659;28;20054;-76
2022/03/22 11:46:45;;;;;;;95.95;86.32;;;;;;;14.26;43.61;102253.56;4990472;28;20117;-80
2022/03/22 11:49:18;;;;;;;92.05;82.97;;;;;;;10.68;50.69;102270.75;5005221;28;20042;-78